NZDT,Max TemperatureF,Mean TemperatureF,Min TemperatureF,Max Dew PointF,MeanDew PointF,Min DewpointF,Max Humidity, Mean Humidity, Min Humidity, Max Sea Level PressureIn, Mean Sea Level PressureIn, Min Sea Level PressureIn, Max VisibilityMiles, Mean VisibilityMiles, Min VisibilityMiles, Max Wind SpeedMPH, Mean Wind SpeedMPH, Max Gust SpeedMPH,PrecipitationIn, CloudCover, Events, WindDirDegrees
2013-2-1,75,67,59,61,59,57,94,80,53,30.09,29.95,29.83,6,6,5,15,8,,0.00,4,,55
2013-2-2,77,67,57,61,59,57,100,84,50,29.86,29.80,29.71,6,5,0,16,8,,0.00,6,Fog,212
2013-2-3,77,68,59,61,55,50,100,69,39,29.92,29.83,29.74,6,6,6,20,9,,0.00,3,,151
2013-2-4,66,62,55,64,60,54,100,91,83,29.80,29.58,29.44,6,6,3,25,11,,0.00,6,Rain,102
2013-2-5,60,54,48,48,43,37,94,71,48,30.18,30.00,29.74,6,6,6,26,18,34,0.00,5,Rain,216
2013-2-6,64,58,51,52,46,43,82,68,52,30.30,30.21,30.18,6,6,6,14,7,,0.00,6,,214
2013-2-7,57,52,46,48,46,45,93,81,67,30.30,30.28,30.27,6,6,6,4,3,,0.00,6,,275
2013-2-8,68,64,59,57,55,54,88,76,64,30.27,30.21,30.12,6,6,6,21,15,,0.00,6,,69
2013-2-9,80,68,55,59,56,48,100,81,32,30.12,30.07,30.04,6,6,0,12,7,,0.00,5,Fog,70
2013-2-10,75,65,55,61,57,54,100,82,50,30.06,29.98,29.89,6,5,0,16,10,,0.00,5,Fog,57
2013-2-11,80,70,59,61,56,46,100,75,45,29.95,29.81,29.74,6,5,1,29,11,,0.00,5,,186
2013-2-12,66,60,53,59,54,52,94,81,60,29.95,29.88,29.74,6,6,6,15,9,,0.00,5,,61
2013-2-13,64,60,55,57,49,41,100,70,48,29.95,29.83,29.71,6,6,6,22,9,,0.00,4,,164
2013-2-14,77,60,42,54,44,36,93,61,24,29.95,29.87,29.80,6,6,6,16,6,,0.00,2,,45
2013-2-15,68,60,51,54,52,48,94,73,56,30.01,29.96,29.86,6,6,6,20,10,,0.00,3,,50
2013-2-16,77,62,48,57,53,46,100,72,34,29.98,29.92,29.86,6,6,6,15,8,,0.00,4,Fog,60
2013-2-17,66,62,55,54,51,48,88,73,56,30.27,30.13,29.98,6,6,6,15,11,,0.00,6,,201
2013-2-18,69,56,44,55,51,45,100,76,53,30.30,30.27,30.24,6,6,6,13,5,,0.00,3,,38
2013-2-19,73,62,50,59,54,48,100,78,50,30.30,30.23,30.15,6,6,6,20,9,,0.00,1,Fog,52
2013-2-20,69,61,53,59,55,52,94,79,56,30.15,30.11,30.06,6,6,6,16,10,,0.00,3,,205
2013-2-21,73,60,46,57,50,45,100,82,44,30.27,30.10,30.01,6,6,3,24,6,,0.00,3,Fog,246
2013-2-22,64,58,46,52,47,43,94,73,52,30.30,30.26,30.24,6,6,6,12,10,,0.00,5,,216
2013-2-23,68,54,41,50,45,39,100,75,46,30.39,30.32,30.30,6,6,6,12,4,,0.00,2,,219
2013-2-24,71,56,41,54,47,39,100,77,43,30.48,30.41,30.39,6,6,6,12,4,,0.00,2,,309
2013-2-25,68,62,57,55,53,52,88,77,60,30.51,30.44,30.36,6,6,6,21,7,,0.00,4,,53
2013-2-26,69,63,55,57,56,54,94,77,60,30.39,30.30,30.24,6,6,6,14,12,,0.00,4,,61
2013-2-27,71,63,55,59,57,54,100,81,57,30.27,30.20,30.09,6,6,6,16,6,,0.00,5,,71
2013-2-28,71,66,60,59,58,55,94,80,60,30.09,29.94,29.80,6,6,6,22,14,,0.00,5,,75